Time;durP1;ratioP1;P1;durP2;ratioP2;P2;SDS_P1;SDS_P2;PMS_P1;PMS_P2;Temp;Humidity;BMP_temperature;BMP_pressure;BME280_temperature;BME280_humidity;BME280_pressure;Samples;Min_cycle;Max_cycle;Signal;HPM_P1;HPM_P2
2022/01/12 00:01:14;;;;;;;11.93;8.32;;;5.80;72.00;;;;;;5006896;28;20256;-73
2022/01/12 00:03:43;;;;;;;14.75;7.53;;;5.80;72.20;;;;;;5008672;28;20216;-74
2022/01/12 00:06:12;;;;;;;13.40;9.23;;;5.80;72.20;;;;;;5009391;28;20206;-73
2022/01/12 00:08:42;;;;;;;17.65;11.90;;;5.80;72.20;;;;;;5000665;28;20209;-73
2022/01/12 00:11:10;;;;;;;21.83;13.82;;;5.80;72.20;;;;;;4997726;28;20205;-74
2022/01/12 00:13:38;;;;;;;21.38;12.15;;;5.80;72.10;;;;;;5013469;28;20205;-74
2022/01/12 00:16:07;;;;;;;14.10;9.48;;;5.80;72.10;;;;;;5015429;28;20790;-74
2022/01/12 00:18:35;;;;;;;18.35;11.35;;;5.80;72.20;;;;;;5010526;28;20197;-74
2022/01/12 00:21:03;;;;;;;17.30;9.65;;;5.70;72.20;;;;;;4994352;28;20905;-74
2022/01/12 00:23:32;;;;;;;15.10;10.73;;;5.70;72.10;;;;;;5012782;28;20221;-74
2022/01/12 00:26:07;;;;;;;11.75;8.48;;;5.70;72.00;;;;;;5014685;28;20205;-74
2022/01/12 00:34:19;;;;;;;32.88;17.77;;;5.70;71.90;;;;;;5015732;28;20205;-74
2022/01/12 00:36:48;;;;;;;23.55;13.55;;;5.60;71.80;;;;;;4997577;28;20224;-74
2022/01/12 00:39:16;;;;;;;17.77;11.63;;;5.60;72.00;;;;;;4998159;28;20236;-74
2022/01/12 00:41:47;;;;;;;13.25;9.90;;;5.60;72.10;;;;;;5014055;28;20208;-74
2022/01/12 00:44:22;;;;;;;16.77;10.73;;;5.60;72.10;;;;;;5015125;28;20201;-74
2022/01/12 00:46:51;;;;;;;14.88;10.20;;;5.60;71.90;;;;;;5012292;28;20236;-73
2022/01/12 00:49:20;;;;;;;15.68;10.38;;;5.60;72.00;;;;;;5002786;28;20765;-74
2022/01/12 00:51:53;;;;;;;14.65;10.48;;;5.60;72.10;;;;;;5015424;28;20193;-74
2022/01/12 00:54:23;;;;;;;16.45;10.85;;;5.60;72.20;;;;;;5013223;28;20201;-73
2022/01/12 00:56:53;;;;;;;13.00;9.43;;;5.60;72.20;;;;;;5015101;28;20711;-74
2022/01/12 00:59:22;;;;;;;20.88;13.40;;;5.70;72.20;;;;;;5000107;28;20212;-73
2022/01/12 01:01:55;;;;;;;18.83;11.80;;;5.70;72.10;;;;;;4998448;28;20220;-74
2022/01/12 01:04:25;;;;;;;14.95;10.00;;;5.70;72.10;;;;;;5004451;28;20293;-74
2022/01/12 01:06:55;;;;;;;14.93;10.75;;;5.70;72.00;;;;;;5002536;28;20275;-74
2022/01/12 01:09:24;;;;;;;16.10;11.13;;;5.70;72.10;;;;;;5003988;28;20225;-74
2022/01/12 01:11:56;;;;;;;18.23;11.18;;;5.70;72.10;;;;;;5011853;28;20217;-74
2022/01/12 01:14:37;;;;;;;14.20;9.95;;;5.60;72.00;;;;;;4995303;28;20221;-74
2022/01/12 01:25:24;;;;;;;13.95;9.55;;;5.60;72.00;;;;;;5012912;28;20221;-74
2022/01/12 01:25:32;;;;;;;14.05;8.98;;;5.60;72.00;;;;;;4996712;28;20201;-74
2022/01/12 01:28:02;;;;;;;17.75;9.38;;;5.60;72.00;;;;;;4999107;28;20331;-73
2022/01/12 01:30:31;;;;;;;12.48;8.25;;;5.60;72.10;;;;;;5014464;28;20212;-73
2022/01/12 01:33:06;;;;;;;11.27;8.20;;;5.60;72.00;;;;;;5001984;28;20273;-73
2022/01/12 01:35:36;;;;;;;13.30;9.52;;;5.50;72.00;;;;;;5015053;28;20209;-73
2022/01/12 01:38:06;;;;;;;28.33;15.60;;;5.50;72.00;;;;;;4999857;28;20244;-73
2022/01/12 01:40:37;;;;;;;25.10;14.52;;;5.50;72.00;;;;;;5017870;28;20216;-73
2022/01/12 01:43:16;;;;;;;15.18;10.20;;;5.50;72.00;;;;;;5016754;28;20209;-73
2022/01/12 01:54:04;;;;;;;10.70;7.93;;;5.30;72.00;;;;;;5003516;28;20201;-74
2022/01/12 01:56:32;;;;;;;12.63;8.32;;;5.30;71.90;;;;;;5003991;28;20730;-73
2022/01/12 01:59:01;;;;;;;11.30;7.93;;;5.20;71.90;;;;;;5016267;28;20198;-73
2022/01/12 02:01:30;;;;;;;12.45;8.77;;;5.20;72.00;;;;;;5013034;28;20214;-73
2022/01/12 02:04:04;;;;;;;12.63;7.97;;;5.10;72.00;;;;;;5001382;28;20252;-73
2022/01/12 02:06:37;;;;;;;8.82;6.70;;;5.10;72.00;;;;;;5001788;28;20605;-73
2022/01/12 02:09:06;;;;;;;9.70;7.32;;;5.00;72.10;;;;;;5000367;28;20209;-73
2022/01/12 02:11:43;;;;;;;10.60;7.00;;;5.00;72.20;;;;;;5000410;28;20206;-74
2022/01/12 02:14:18;;;;;;;14.95;7.72;;;5.00;72.20;;;;;;5003783;28;20686;-73
2022/01/12 02:16:51;;;;;;;9.90;7.40;;;5.00;72.10;;;;;;5014933;28;20233;-73
2022/01/12 02:19:43;;;;;;;11.63;7.00;;;5.00;72.10;;;;;;5001422;28;20633;-73
2022/01/12 02:36:11;;;;;;;11.73;8.30;;;4.90;72.20;;;;;;5011005;28;20196;-74
2022/01/12 02:41:26;;;;;;;12.30;7.78;;;4.90;72.10;;;;;;4998172;28;20268;-74
2022/01/12 02:55:00;;;;;;;14.00;9.70;;;4.80;72.00;;;;;;5014381;28;20198;-73
2022/01/12 02:57:28;;;;;;;12.80;9.32;;;4.70;72.10;;;;;;5020252;28;20240;-73
2022/01/12 03:00:05;;;;;;;12.65;9.80;;;4.60;72.20;;;;;;5000554;28;20388;-73
2022/01/12 03:02:37;;;;;;;21.27;9.85;;;4.60;72.30;;;;;;5016617;28;20202;-73
2022/01/12 03:05:33;;;;;;;13.93;9.82;;;4.60;72.40;;;;;;5015468;28;20205;-74
2022/01/12 03:08:08;;;;;;;12.07;8.48;;;4.60;72.40;;;;;;5014165;28;20770;-73
2022/01/12 03:10:38;;;;;;;15.23;8.32;;;4.60;72.60;;;;;;4997522;28;20232;-73
2022/01/12 03:13:06;;;;;;;12.70;8.85;;;4.60;72.60;;;;;;5015040;28;20200;-74
2022/01/12 03:15:39;;;;;;;12.30;7.88;;;4.60;72.60;;;;;;5003281;28;20710;-73
2022/01/12 03:18:09;;;;;;;11.82;8.02;;;4.60;72.50;;;;;;5004609;28;20737;-73
2022/01/12 03:20:38;;;;;;;9.48;6.72;;;4.60;72.50;;;;;;5000269;28;20214;-73
2022/01/12 03:23:07;;;;;;;10.18;7.40;;;4.60;72.60;;;;;;5017715;28;20209;-73
2022/01/12 03:25:37;;;;;;;12.48;8.20;;;4.60;72.60;;;;;;4997752;28;20206;-73
2022/01/12 03:28:07;;;;;;;13.43;8.00;;;4.60;72.60;;;;;;5012742;28;20909;-73
2022/01/12 03:30:41;;;;;;;11.60;7.80;;;4.60;72.60;;;;;;4997586;28;20217;-74
2022/01/12 03:33:16;;;;;;;12.00;8.82;;;4.60;72.50;;;;;;5002386;28;20675;-75
2022/01/12 03:35:51;;;;;;;14.73;10.15;;;4.50;72.60;;;;;;5017927;28;20300;-74
2022/01/12 03:38:22;;;;;;;13.30;9.70;;;4.50;72.60;;;;;;5018051;28;20232;-75
2022/01/12 03:40:53;;;;;;;14.45;9.30;;;4.50;72.40;;;;;;5017145;28;20284;-75
2022/01/12 03:43:21;;;;;;;14.10;9.73;;;4.40;72.40;;;;;;4994672;28;20232;-75
2022/01/12 03:45:49;;;;;;;12.85;9.25;;;4.40;72.50;;;;;;5004565;28;20828;-75
2022/01/12 03:48:18;;;;;;;12.52;8.50;;;4.40;72.60;;;;;;5003075;28;20236;-74
2022/01/12 03:50:48;;;;;;;14.27;9.50;;;4.40;72.60;;;;;;5014034;28;20224;-74
2022/01/12 03:53:16;;;;;;;12.02;9.15;;;4.30;72.40;;;;;;5001067;28;20201;-74
2022/01/12 03:55:45;;;;;;;14.43;9.35;;;4.30;72.50;;;;;;4998769;28;20190;-74
2022/01/12 03:58:14;;;;;;;15.90;12.05;;;4.30;72.70;;;;;;5003240;28;20232;-74
2022/01/12 04:00:42;;;;;;;13.55;10.02;;;4.30;72.70;;;;;;5016553;28;20194;-74
2022/01/12 04:03:12;;;;;;;13.57;10.77;;;4.20;72.50;;;;;;4996251;28;20201;-74
2022/01/12 04:08:24;;;;;;;13.95;9.88;;;4.20;73.00;;;;;;5008236;28;20232;-74
2022/01/12 04:10:55;;;;;;;12.63;8.35;;;4.20;73.00;;;;;;5013341;28;20586;-74
2022/01/12 04:13:27;;;;;;;15.02;10.13;;;4.30;73.10;;;;;;5019302;28;20213;-74
2022/01/12 04:15:58;;;;;;;13.38;9.77;;;4.30;73.10;;;;;;5014627;28;20244;-74
2022/01/12 04:18:26;;;;;;;12.38;9.38;;;4.30;73.10;;;;;;5000801;28;20604;-74
2022/01/12 04:20:56;;;;;;;13.57;9.60;;;4.30;73.10;;;;;;5003352;28;20546;-74
2022/01/12 04:23:24;;;;;;;11.57;9.15;;;4.30;73.10;;;;;;5017158;28;20214;-73
2022/01/12 04:25:56;;;;;;;13.10;9.82;;;4.30;73.20;;;;;;5004585;28;20305;-74
2022/01/12 04:28:27;;;;;;;16.15;10.52;;;4.40;73.20;;;;;;5016952;28;20233;-73
2022/01/12 04:30:58;;;;;;;15.27;9.73;;;4.40;73.20;;;;;;5001843;28;20823;-74
2022/01/12 04:33:26;;;;;;;13.35;9.60;;;4.40;73.20;;;;;;5017776;28;20228;-74
2022/01/12 04:35:54;;;;;;;13.43;8.63;;;4.40;73.10;;;;;;5018286;28;20200;-74
2022/01/12 04:38:27;;;;;;;11.23;8.13;;;4.40;73.20;;;;;;4998280;28;20217;-74
2022/01/12 04:40:55;;;;;;;13.02;9.57;;;4.40;73.20;;;;;;5016385;28;20979;-74
2022/01/12 04:43:26;;;;;;;22.80;14.32;;;4.40;73.20;;;;;;4998127;28;20568;-74
2022/01/12 04:49:08;;;;;;;18.02;11.30;;;4.30;73.20;;;;;;4921730;29;20291;-74
2022/01/12 04:51:37;;;;;;;18.52;13.10;;;4.30;73.30;;;;;;4990919;28;20240;-74
2022/01/12 04:54:05;;;;;;;21.35;12.80;;;4.30;73.40;;;;;;4999002;28;20205;-74
2022/01/12 04:56:33;;;;;;;21.33;12.70;;;4.30;73.50;;;;;;4996141;28;20233;-74
2022/01/12 04:59:03;;;;;;;22.73;13.60;;;4.30;73.50;;;;;;5018996;28;20212;-74
2022/01/12 05:01:36;;;;;;;19.50;12.90;;;4.30;73.40;;;;;;5014656;28;20205;-74
2022/01/12 05:07:10;;;;;;;16.25;10.88;;;4.30;73.60;;;;;;5001895;28;20224;-74
2022/01/12 05:10:01;;;;;;;15.98;9.70;;;4.30;73.60;;;;;;5008172;28;20220;-74
2022/01/12 05:12:51;;;;;;;14.70;9.38;;;4.30;73.70;;;;;;5006624;28;20584;-74
2022/01/12 05:15:28;;;;;;;16.98;10.65;;;4.30;73.80;;;;;;5005393;28;20694;-73
2022/01/12 05:17:57;;;;;;;28.73;17.63;;;4.30;73.70;;;;;;5018710;28;20240;-73
2022/01/12 05:20:26;;;;;;;36.92;22.80;;;4.30;73.70;;;;;;4999785;28;20208;-72
2022/01/12 05:22:54;;;;;;;34.03;20.50;;;4.30;73.50;;;;;;5008367;28;20204;-74
2022/01/12 05:25:23;;;;;;;26.27;16.42;;;4.20;73.40;;;;;;5016084;28;20228;-73
2022/01/12 05:27:52;;;;;;;24.00;15.32;;;4.20;73.50;;;;;;5006697;28;20235;-74
2022/01/12 05:30:22;;;;;;;26.40;18.23;;;4.20;73.70;;;;;;5022081;28;20289;-74
2022/01/12 05:32:50;;;;;;;20.98;15.73;;;4.20;73.80;;;;;;5007456;28;20203;-74
2022/01/12 05:35:20;;;;;;;27.23;18.25;;;4.30;73.80;;;;;;5019009;28;20209;-73
2022/01/12 05:37:49;;;;;;;33.08;19.15;;;4.30;73.80;;;;;;5003990;28;20212;-75
2022/01/12 05:40:20;;;;;;;30.63;19.90;;;4.30;73.80;;;;;;5008278;28;20206;-73
2022/01/12 05:42:50;;;;;;;23.50;15.85;;;4.30;73.80;;;;;;5003641;28;20205;-73
2022/01/12 05:45:24;;;;;;;21.70;16.20;;;4.30;73.70;;;;;;5017758;28;20232;-74
2022/01/12 05:50:42;;;;;;;24.67;16.38;;;4.20;73.50;;;;;;5015881;28;20287;-73
2022/01/12 05:53:15;;;;;;;21.55;14.63;;;4.20;73.70;;;;;;5001487;28;20216;-74
2022/01/12 05:55:45;;;;;;;20.95;13.63;;;4.10;73.80;;;;;;5015796;28;20212;-73
2022/01/12 05:58:13;;;;;;;21.08;13.55;;;4.10;73.80;;;;;;5003686;28;20721;-73
2022/01/12 06:00:43;;;;;;;20.95;14.45;;;4.20;73.90;;;;;;5006149;28;20202;-73
2022/01/12 06:03:11;;;;;;;16.25;10.90;;;4.20;73.90;;;;;;4999323;28;20237;-74
2022/01/12 06:05:39;;;;;;;18.10;11.43;;;4.20;73.90;;;;;;5017090;28;20669;-73
2022/01/12 06:08:08;;;;;;;22.70;13.63;;;4.20;73.80;;;;;;5000591;28;20232;-74
2022/01/12 06:10:36;;;;;;;19.25;13.25;;;4.20;73.70;;;;;;5004022;28;20198;-73
2022/01/12 06:13:04;;;;;;;50.58;26.63;;;4.20;73.70;;;;;;5003326;28;20754;-73
2022/01/12 06:15:32;;;;;;;72.38;38.08;;;4.20;73.50;;;;;;5016814;28;20216;-73
2022/01/12 06:18:01;;;;;;;64.18;35.53;;;4.10;73.40;;;;;;5005509;28;20225;-73
2022/01/12 06:20:30;;;;;;;42.58;24.98;;;4.00;73.40;;;;;;5002389;28;20201;-73
2022/01/12 06:23:21;;;;;;;28.90;19.90;;;4.00;73.50;;;;;;5019956;28;20215;-72
2022/01/12 06:25:55;;;;;;;20.42;14.63;;;4.00;73.60;;;;;;5016640;28;20205;-72
2022/01/12 06:28:37;;;;;;;27.05;16.95;;;4.00;73.70;;;;;;5005322;28;20233;-72
2022/01/12 06:31:13;;;;;;;28.38;18.00;;;4.00;73.80;;;;;;5001923;28;20251;-72
2022/01/12 06:33:44;;;;;;;27.30;16.90;;;4.00;73.80;;;;;;5000932;28;20240;-72
2022/01/12 06:36:14;;;;;;;24.75;15.50;;;4.00;73.70;;;;;;5001258;28;20214;-72
2022/01/12 06:38:42;;;;;;;27.02;19.90;;;4.10;73.70;;;;;;5001616;28;20212;-72
2022/01/12 06:41:12;;;;;;;25.50;18.45;;;4.00;73.60;;;;;;4996600;28;20201;-72
2022/01/12 06:43:40;;;;;;;31.00;24.70;;;4.00;73.60;;;;;;4998574;28;20213;-72
2022/01/12 06:46:09;;;;;;;23.20;17.65;;;4.00;73.60;;;;;;5011591;28;20331;-72
2022/01/12 06:48:38;;;;;;;24.48;16.58;;;4.00;73.50;;;;;;5000176;28;20209;-72
2022/01/12 06:51:07;;;;;;;23.70;17.55;;;3.90;73.50;;;;;;5015318;28;20197;-72
2022/01/12 06:53:35;;;;;;;21.15;13.20;;;3.80;73.70;;;;;;5011726;28;20201;-73
2022/01/12 06:56:04;;;;;;;19.40;14.70;;;3.80;73.80;;;;;;5008163;28;20206;-74
2022/01/12 06:58:36;;;;;;;18.73;13.88;;;3.80;73.90;;;;;;5000767;28;20235;-73
2022/01/12 07:01:04;;;;;;;19.80;13.88;;;3.90;74.00;;;;;;4997770;28;20200;-73
2022/01/12 07:03:37;;;;;;;57.05;38.35;;;3.90;73.90;;;;;;4998964;28;20201;-74
2022/01/12 07:06:07;;;;;;;21.27;15.07;;;3.90;73.90;;;;;;4996690;28;20202;-73
2022/01/12 07:08:36;;;;;;;18.58;14.77;;;3.90;73.80;;;;;;5013381;28;20201;-73
2022/01/12 07:11:06;;;;;;;37.63;22.00;;;3.90;73.80;;;;;;5014416;28;20210;-73
2022/01/12 07:13:34;;;;;;;26.35;16.55;;;3.90;73.80;;;;;;4999104;28;20225;-73
2022/01/12 07:16:02;;;;;;;35.40;19.40;;;3.90;73.70;;;;;;4996731;28;20201;-73
2022/01/12 07:18:30;;;;;;;45.75;23.15;;;3.90;73.80;;;;;;5013537;28;20280;-75
2022/01/12 07:20:58;;;;;;;41.78;20.25;;;3.90;73.90;;;;;;5001746;28;20223;-73
2022/01/12 07:23:28;;;;;;;40.58;23.00;;;3.90;73.90;;;;;;5014776;28;20197;-75
2022/01/12 07:25:56;;;;;;;39.85;21.50;;;3.90;73.80;;;;;;5001921;28;20263;-74
2022/01/12 07:28:24;;;;;;;45.83;18.63;;;3.90;73.90;;;;;;5011909;28;20249;-75
2022/01/12 07:30:52;;;;;;;25.77;16.60;;;3.90;74.00;;;;;;5011929;28;20208;-75
2022/01/12 07:33:22;;;;;;;22.15;14.60;;;4.00;73.80;;;;;;5000199;28;20243;-75
2022/01/12 07:35:50;;;;;;;22.55;14.70;;;4.00;73.80;;;;;;4998378;28;20625;-75
2022/01/12 07:38:18;;;;;;;19.20;13.45;;;4.00;73.80;;;;;;5012329;28;20231;-75
2022/01/12 07:40:47;;;;;;;21.85;14.60;;;4.00;73.80;;;;;;5010736;28;20227;-75
2022/01/12 07:43:15;;;;;;;19.30;14.80;;;4.00;73.80;;;;;;5001724;28;20193;-75
2022/01/12 07:45:43;;;;;;;19.77;13.77;;;4.00;73.80;;;;;;5015228;28;20296;-74
2022/01/12 07:48:12;;;;;;;20.73;13.27;;;4.00;73.90;;;;;;5010971;28;20299;-75
2022/01/12 07:50:41;;;;;;;18.77;13.00;;;4.00;73.90;;;;;;4995092;28;20801;-75
2022/01/12 07:53:09;;;;;;;19.95;13.05;;;4.00;73.90;;;;;;5010799;28;20213;-74
2022/01/12 07:55:37;;;;;;;15.82;11.45;;;4.00;73.90;;;;;;5016782;28;20221;-75
2022/01/12 07:58:06;;;;;;;17.80;13.05;;;4.00;73.80;;;;;;5008320;28;20746;-75
2022/01/12 08:00:35;;;;;;;21.73;14.60;;;4.00;73.90;;;;;;4994807;28;20209;-75
2022/01/12 08:03:03;;;;;;;38.88;20.70;;;4.00;73.80;;;;;;4993495;28;20216;-73
2022/01/12 08:05:31;;;;;;;23.23;13.98;;;4.00;73.70;;;;;;5013112;28;20263;-73
2022/01/12 08:07:59;;;;;;;21.15;12.77;;;4.00;73.70;;;;;;5016752;28;20216;-73
2022/01/12 08:10:27;;;;;;;16.77;12.07;;;3.90;73.90;;;;;;5015337;28;20208;-73
2022/01/12 08:12:55;;;;;;;25.48;13.73;;;3.90;73.90;;;;;;4998716;28;20225;-74
2022/01/12 08:15:24;;;;;;;18.88;11.77;;;3.90;73.90;;;;;;4995096;28;21859;-74
2022/01/12 08:17:52;;;;;;;16.35;11.20;;;3.90;74.00;;;;;;5011627;28;20225;-73
2022/01/12 08:20:25;;;;;;;17.48;11.27;;;4.00;73.90;;;;;;5011698;28;20216;-73
2022/01/12 08:22:53;;;;;;;14.93;10.43;;;4.00;73.90;;;;;;5011907;28;20200;-73
2022/01/12 08:25:21;;;;;;;14.80;10.10;;;4.00;73.90;;;;;;5019668;28;20248;-73
2022/01/12 08:27:50;;;;;;;13.43;9.20;;;4.00;73.90;;;;;;4998345;28;20233;-73
2022/01/12 08:30:22;;;;;;;13.90;9.52;;;4.00;73.90;;;;;;4992328;28;20212;-74
2022/01/12 08:32:53;;;;;;;15.25;10.77;;;4.00;73.90;;;;;;5012213;28;20247;-74
2022/01/12 08:35:21;;;;;;;20.00;11.32;;;4.00;73.90;;;;;;5013689;28;20209;-74
2022/01/12 08:37:49;;;;;;;14.57;9.90;;;4.00;73.90;;;;;;5013384;28;20224;-74
2022/01/12 08:40:19;;;;;;;19.75;10.10;;;4.00;73.90;;;;;;4995563;28;20208;-74
2022/01/12 08:42:48;;;;;;;16.08;9.60;;;4.00;74.00;;;;;;5001603;28;20201;-74
2022/01/12 08:45:17;;;;;;;15.82;10.18;;;4.00;74.10;;;;;;5019581;28;20212;-74
2022/01/12 08:47:46;;;;;;;16.20;10.23;;;4.10;74.10;;;;;;5015600;28;20217;-74
2022/01/12 08:50:15;;;;;;;16.50;9.98;;;4.10;74.10;;;;;;4997527;28;20215;-74
2022/01/12 08:52:46;;;;;;;14.27;9.65;;;4.10;74.10;;;;;;4992813;28;20228;-74
2022/01/12 08:55:15;;;;;;;14.32;10.25;;;4.10;74.10;;;;;;5015746;28;20201;-74
2022/01/12 08:57:44;;;;;;;15.57;10.75;;;4.20;74.10;;;;;;5012024;28;20757;-73
2022/01/12 09:00:13;;;;;;;15.07;10.52;;;4.20;74.00;;;;;;5011323;28;20559;-74
2022/01/12 09:02:41;;;;;;;15.02;10.70;;;4.20;74.10;;;;;;5019725;28;20199;-74
2022/01/12 09:05:11;;;;;;;14.43;10.50;;;4.20;74.10;;;;;;5002819;28;20216;-74
2022/01/12 09:07:41;;;;;;;16.40;11.48;;;4.20;74.00;;;;;;5011170;28;20307;-73
2022/01/12 09:10:10;;;;;;;16.05;10.43;;;4.20;74.10;;;;;;5012090;28;20193;-74
2022/01/12 09:12:38;;;;;;;15.32;10.63;;;4.20;74.10;;;;;;4995658;28;20315;-74
2022/01/12 09:15:07;;;;;;;18.08;11.20;;;4.20;74.20;;;;;;5008944;28;20201;-74
2022/01/12 09:17:35;;;;;;;13.70;10.25;;;4.20;74.20;;;;;;4994031;28;20718;-74
2022/01/12 09:20:05;;;;;;;16.23;11.02;;;4.30;74.20;;;;;;5012908;28;20197;-73
2022/01/12 09:22:34;;;;;;;16.75;11.27;;;4.30;74.30;;;;;;4995336;28;20197;-74
2022/01/12 09:25:04;;;;;;;15.93;10.65;;;4.30;74.30;;;;;;4999240;28;20209;-74
2022/01/12 09:27:32;;;;;;;14.57;10.05;;;4.30;74.20;;;;;;5013691;28;20232;-74
2022/01/12 09:30:00;;;;;;;15.88;11.20;;;4.30;74.20;;;;;;5002384;28;20210;-74
2022/01/12 09:32:27;;;;;;;16.20;10.85;;;4.40;74.20;;;;;;4994806;28;20266;-74
2022/01/12 09:34:55;;;;;;;18.42;11.75;;;4.40;74.20;;;;;;5006499;28;20220;-74
2022/01/12 09:37:24;;;;;;;15.65;11.05;;;4.40;74.20;;;;;;5011259;28;20284;-74
2022/01/12 09:39:51;;;;;;;14.00;9.82;;;4.40;74.10;;;;;;5014427;28;20664;-73
2022/01/12 09:42:21;;;;;;;15.38;11.02;;;4.40;74.10;;;;;;4996950;28;20208;-74
2022/01/12 09:44:50;;;;;;;18.67;10.60;;;4.40;74.10;;;;;;5000288;28;20220;-73
2022/01/12 09:47:19;;;;;;;14.75;10.07;;;4.40;74.10;;;;;;5015657;28;20221;-73
2022/01/12 09:49:48;;;;;;;12.95;9.63;;;4.40;74.10;;;;;;5011710;28;20209;-73
2022/01/12 09:52:16;;;;;;;14.70;9.50;;;4.40;74.10;;;;;;5012278;28;20204;-73
2022/01/12 09:54:45;;;;;;;14.85;9.50;;;4.50;74.10;;;;;;5013036;28;20249;-73
2022/01/12 09:57:15;;;;;;;13.15;9.07;;;4.50;74.10;;;;;;5015650;28;20252;-74
2022/01/12 09:59:44;;;;;;;12.98;9.55;;;4.50;74.00;;;;;;4997915;28;20420;-73
2022/01/12 10:02:17;;;;;;;12.60;9.30;;;4.50;73.80;;;;;;5014488;28;20760;-73
2022/01/12 10:04:45;;;;;;;12.90;9.07;;;4.50;73.80;;;;;;5018531;28;20236;-73
2022/01/12 10:07:14;;;;;;;11.30;7.93;;;4.50;73.80;;;;;;5016643;28;20233;-73
2022/01/12 10:09:44;;;;;;;12.73;7.70;;;4.50;73.80;;;;;;5017011;28;20205;-73
2022/01/12 10:12:16;;;;;;;10.82;7.95;;;4.50;73.70;;;;;;5018335;28;20194;-73
2022/01/12 10:14:52;;;;;;;12.27;7.78;;;4.50;73.70;;;;;;5000533;28;20221;-73
2022/01/12 10:17:31;;;;;;;12.48;7.75;;;4.50;73.70;;;;;;5019813;28;20291;-73
2022/01/12 10:20:07;;;;;;;12.32;8.32;;;4.50;73.80;;;;;;4997503;28;20809;-73
2022/01/12 10:22:36;;;;;;;10.30;7.93;;;4.50;73.80;;;;;;5015451;28;20205;-73
2022/01/12 10:25:16;;;;;;;13.77;9.35;;;4.50;73.80;;;;;;5014665;28;20260;-74
2022/01/12 10:27:45;;;;;;;12.52;8.63;;;4.50;73.70;;;;;;5002253;28;20315;-73
2022/01/12 10:30:22;;;;;;;12.52;9.05;;;4.60;73.70;;;;;;5011984;28;20210;-74
2022/01/12 10:33:00;;;;;;;10.25;7.28;;;4.60;73.80;;;;;;4997907;28;20222;-74
2022/01/12 10:35:29;;;;;;;11.15;7.53;;;4.60;73.50;;;;;;5013950;28;20211;-73
2022/01/12 10:38:07;;;;;;;10.32;7.25;;;4.60;73.50;;;;;;5014413;28;21644;-74
2022/01/12 10:40:51;;;;;;;9.73;6.88;;;4.60;73.50;;;;;;5014058;28;20209;-73
2022/01/12 10:43:35;;;;;;;10.23;6.43;;;4.60;73.20;;;;;;5016335;28;20212;-73
2022/01/12 10:46:07;;;;;;;11.63;6.78;;;4.60;73.20;;;;;;5000731;28;20201;-73
2022/01/12 10:48:45;;;;;;;9.85;6.80;;;4.60;73.20;;;;;;4998096;28;20213;-73
2022/01/12 10:51:16;;;;;;;9.77;6.65;;;4.60;73.20;;;;;;5015829;28;20201;-73
2022/01/12 10:53:44;;;;;;;10.07;6.50;;;4.50;73.00;;;;;;5015927;28;20209;-73
2022/01/12 10:56:14;;;;;;;9.45;6.82;;;4.50;73.00;;;;;;5013447;28;20798;-73
2022/01/12 10:58:44;;;;;;;9.85;6.90;;;4.50;73.10;;;;;;5010550;28;20212;-73
2022/01/12 11:01:15;;;;;;;10.85;6.85;;;4.50;73.10;;;;;;5009604;28;20196;-73
2022/01/12 11:03:44;;;;;;;11.55;8.13;;;4.50;73.00;;;;;;4998040;28;20205;-73
2022/01/12 11:06:12;;;;;;;10.48;7.63;;;4.50;73.00;;;;;;5010902;28;20690;-73
2022/01/12 11:08:42;;;;;;;10.52;6.68;;;4.50;73.00;;;;;;5016563;28;20220;-73
2022/01/12 11:11:10;;;;;;;9.48;7.60;;;4.50;73.00;;;;;;5010834;28;20252;-73
2022/01/12 11:13:38;;;;;;;11.82;7.93;;;4.40;73.10;;;;;;5009416;28;20217;-73
2022/01/12 11:16:06;;;;;;;10.00;7.00;;;4.50;73.00;;;;;;5015626;28;20204;-73
2022/01/12 11:18:39;;;;;;;11.50;7.40;;;4.50;73.10;;;;;;5013479;28;20205;-73
2022/01/12 11:21:10;;;;;;;11.07;7.55;;;4.50;73.10;;;;;;5013127;28;20204;-73
2022/01/12 11:23:40;;;;;;;10.45;7.00;;;4.50;73.10;;;;;;5011993;28;20717;-73
2022/01/12 11:26:15;;;;;;;10.57;7.07;;;4.50;73.10;;;;;;5011775;28;20756;-74
2022/01/12 11:28:44;;;;;;;10.13;6.75;;;4.50;73.10;;;;;;5021144;28;20192;-73
2022/01/12 11:31:12;;;;;;;11.23;7.40;;;4.60;73.00;;;;;;5015282;28;20268;-73
2022/01/12 11:33:44;;;;;;;10.52;7.10;;;4.60;73.00;;;;;;5000488;28;20205;-73
2022/01/12 11:36:18;;;;;;;10.13;7.45;;;4.60;73.00;;;;;;4999027;28;20275;-74
2022/01/12 11:38:48;;;;;;;10.50;7.28;;;4.60;72.90;;;;;;5020235;28;20220;-73
2022/01/12 11:41:21;;;;;;;12.20;7.35;;;4.70;72.90;;;;;;5001100;28;20209;-73
2022/01/12 11:43:51;;;;;;;11.05;8.20;;;4.70;72.90;;;;;;5006659;28;20213;-73
2022/01/12 11:46:21;;;;;;;11.55;6.88;;;4.70;72.90;;;;;;5016999;28;20233;-73
2022/01/12 11:48:52;;;;;;;13.25;7.65;;;4.70;72.90;;;;;;5018664;28;20201;-73
2022/01/12 11:51:32;;;;;;;11.27;7.30;;;4.70;72.90;;;;;;4999892;28;20233;-74
2022/01/12 11:54:02;;;;;;;12.77;8.38;;;4.80;72.80;;;;;;4998801;28;20224;-73
2022/01/12 11:56:30;;;;;;;11.30;7.95;;;4.80;72.80;;;;;;5012917;28;20726;-73
2022/01/12 11:59:00;;;;;;;12.07;8.93;;;4.80;72.80;;;;;;5015912;28;20255;-74
2022/01/12 12:01:43;;;;;;;12.68;8.45;;;4.80;72.70;;;;;;5014760;28;20208;-74
2022/01/12 12:04:25;;;;;;;12.35;7.80;;;4.80;72.80;;;;;;5019226;28;20667;-73
2022/01/12 12:07:09;;;;;;;13.93;8.13;;;4.90;72.80;;;;;;5014769;28;20239;-73
2022/01/12 12:09:43;;;;;;;10.55;7.35;;;4.90;72.70;;;;;;5011386;28;20209;-73
2022/01/12 12:12:13;;;;;;;10.30;8.05;;;4.90;72.50;;;;;;5015517;28;20205;-73
2022/01/12 12:14:41;;;;;;;12.52;7.85;;;4.90;72.70;;;;;;4993293;28;20279;-73
2022/01/12 12:17:09;;;;;;;12.40;7.93;;;4.90;72.80;;;;;;5002240;28;20229;-74
2022/01/12 12:19:39;;;;;;;11.38;7.85;;;4.90;72.70;;;;;;5003712;28;20200;-73
2022/01/12 12:22:12;;;;;;;12.05;7.50;;;5.00;72.70;;;;;;4996792;28;20212;-74
2022/01/12 12:24:40;;;;;;;10.98;7.18;;;5.00;72.70;;;;;;5017096;28;20341;-73
2022/01/12 12:27:10;;;;;;;11.60;7.78;;;5.00;72.70;;;;;;5015648;28;20225;-73
2022/01/12 12:29:39;;;;;;;11.30;7.65;;;5.10;72.60;;;;;;5014796;28;20212;-73
2022/01/12 12:32:12;;;;;;;11.60;7.85;;;5.10;72.70;;;;;;5012549;28;20300;-73
2022/01/12 12:34:43;;;;;;;11.50;8.15;;;5.10;72.60;;;;;;5018270;28;20695;-73
2022/01/12 12:37:15;;;;;;;11.35;8.15;;;5.20;72.50;;;;;;5012987;28;20225;-73
2022/01/12 12:39:45;;;;;;;14.93;10.48;;;5.20;72.30;;;;;;5018700;28;20216;-73
2022/01/12 12:42:16;;;;;;;12.75;8.93;;;5.20;72.50;;;;;;5002267;28;20236;-74
2022/01/12 12:44:44;;;;;;;11.80;8.40;;;5.20;72.40;;;;;;5000312;28;20281;-74
2022/01/12 12:47:14;;;;;;;17.70;8.88;;;5.20;72.40;;;;;;5013212;28;20248;-73
2022/01/12 12:49:49;;;;;;;12.00;7.72;;;5.20;72.50;;;;;;5012576;28;20208;-73
2022/01/12 12:52:26;;;;;;;9.45;6.68;;;5.20;72.40;;;;;;5016548;28;20206;-74
2022/01/12 12:54:55;;;;;;;12.02;7.88;;;5.20;72.40;;;;;;4998054;28;20749;-73
2022/01/12 12:57:23;;;;;;;14.70;9.23;;;5.30;72.40;;;;;;5011595;28;21177;-74
2022/01/12 12:59:52;;;;;;;10.75;7.97;;;5.30;72.40;;;;;;5001568;28;20205;-73
2022/01/12 13:02:21;;;;;;;10.23;7.05;;;5.30;72.40;;;;;;5018427;28;20197;-73
2022/01/12 13:04:50;;;;;;;12.95;8.77;;;5.30;72.40;;;;;;5018620;28;20196;-73
2022/01/12 13:07:20;;;;;;;11.75;8.30;;;5.30;72.40;;;;;;5002256;28;20225;-73
2022/01/12 13:09:47;;;;;;;10.13;7.20;;;5.30;72.40;;;;;;5018481;28;20224;-73
2022/01/12 13:12:15;;;;;;;14.05;8.55;;;5.30;72.30;;;;;;5009726;28;20256;-73
2022/01/12 13:14:46;;;;;;;11.15;8.57;;;5.30;72.20;;;;;;5014737;28;20209;-73
2022/01/12 13:17:15;;;;;;;11.98;8.20;;;5.30;72.20;;;;;;5019889;28;20220;-73
2022/01/12 13:22:32;;;;;;;11.05;7.78;;;5.30;72.40;;;;;;5013507;28;20287;-74
2022/01/12 13:25:02;;;;;;;12.63;8.55;;;5.30;72.40;;;;;;5015893;28;20209;-73
2022/01/12 13:27:32;;;;;;;11.15;8.20;;;5.30;72.30;;;;;;5013120;28;20299;-73
2022/01/12 13:30:00;;;;;;;10.40;7.85;;;5.30;72.40;;;;;;5016356;28;20718;-73
2022/01/12 13:32:28;;;;;;;11.02;8.13;;;5.40;72.40;;;;;;5020934;28;20205;-73
2022/01/12 13:34:57;;;;;;;12.98;9.00;;;5.40;72.40;;;;;;5016730;28;20264;-73
2022/01/12 13:37:25;;;;;;;11.60;8.45;;;5.40;72.40;;;;;;5012598;28;20229;-73
2022/01/12 13:40:07;;;;;;;12.57;9.60;;;5.40;72.30;;;;;;5018409;28;20200;-73
2022/01/12 13:42:48;;;;;;;14.20;10.35;;;5.40;72.20;;;;;;5019153;28;20209;-73
2022/01/12 13:45:18;;;;;;;14.32;9.07;;;5.40;72.10;;;;;;5016035;28;20252;-73
2022/01/12 13:47:58;;;;;;;12.40;9.65;;;5.40;72.00;;;;;;5023853;28;20271;-73
2022/01/12 13:50:35;;;;;;;12.45;9.77;;;5.30;72.00;;;;;;5016303;28;20259;-74
2022/01/12 13:53:04;;;;;;;12.60;8.55;;;5.30;72.10;;;;;;5021008;28;20292;-73
2022/01/12 13:55:35;;;;;;;11.55;7.95;;;5.40;72.10;;;;;;5020638;28;20267;-73
2022/01/12 13:58:06;;;;;;;11.63;7.85;;;5.40;72.20;;;;;;5001046;28;20237;-73
2022/01/12 14:00:36;;;;;;;11.55;7.53;;;5.40;72.20;;;;;;5005830;28;20212;-74
2022/01/12 14:03:15;;;;;;;10.80;8.32;;;5.50;72.20;;;;;;5017589;28;20842;-73